createdAt,value
2023-05-17T00:00:56.337Z,10.50
2023-05-17T00:03:23.094Z,10.50
2023-05-17T00:05:49.906Z,10.50
2023-05-17T00:08:16.722Z,10.50
2023-05-17T00:10:43.493Z,10.50
2023-05-17T00:13:10.796Z,10.40
2023-05-17T00:15:37.510Z,10.40
2023-05-17T00:18:04.402Z,10.40
2023-05-17T00:20:31.208Z,10.30
2023-05-17T00:22:57.971Z,10.30
2023-05-17T00:25:24.679Z,10.30
2023-05-17T00:27:51.731Z,10.20
2023-05-17T00:30:18.446Z,10.20
2023-05-17T00:32:46.958Z,10.10
2023-05-17T00:35:13.898Z,10.10
2023-05-17T00:37:40.693Z,10.10
2023-05-17T00:40:08.049Z,10.10
2023-05-17T00:42:34.868Z,10.10
2023-05-17T00:45:01.600Z,10.00
2023-05-17T00:47:28.460Z,10.00
2023-05-17T00:49:55.310Z,10.00
2023-05-17T00:52:22.103Z,9.90
2023-05-17T00:54:48.905Z,9.90
2023-05-17T00:57:15.684Z,9.80
2023-05-17T00:59:42.431Z,9.80
2023-05-17T01:02:09.174Z,9.80
2023-05-17T01:04:36.191Z,9.80
2023-05-17T01:07:02.986Z,9.70
2023-05-17T01:09:29.708Z,9.80
2023-05-17T01:11:56.554Z,9.70
2023-05-17T01:14:24.383Z,9.70
2023-05-17T01:16:51.263Z,9.70
2023-05-17T01:19:18.194Z,9.70
2023-05-17T01:21:45.348Z,9.70
2023-05-17T01:24:12.317Z,9.60
2023-05-17T01:26:40.721Z,9.60
2023-05-17T01:29:07.434Z,9.60
2023-05-17T01:31:34.216Z,9.60
2023-05-17T01:34:01.600Z,9.50
2023-05-17T01:36:28.435Z,9.50
2023-05-17T01:38:55.202Z,9.50
2023-05-17T01:41:21.947Z,9.50
2023-05-17T01:43:48.742Z,9.40
2023-05-17T01:46:15.561Z,9.40
2023-05-17T01:48:42.277Z,9.40
2023-05-17T01:51:09.084Z,9.40
2023-05-17T01:53:36.226Z,9.40
2023-05-17T01:56:02.993Z,9.40
2023-05-17T01:58:29.728Z,9.30
2023-05-17T02:00:56.671Z,9.30
2023-05-17T02:03:23.463Z,9.30
2023-05-17T02:05:52.796Z,9.20
2023-05-17T02:08:19.565Z,9.30
2023-05-17T02:10:46.362Z,9.30
2023-05-17T02:13:13.105Z,9.20
2023-05-17T02:15:39.886Z,9.20
2023-05-17T02:18:06.864Z,9.20
2023-05-17T02:20:33.701Z,9.10
2023-05-17T02:23:00.778Z,9.10
2023-05-17T02:25:27.903Z,9.10
2023-05-17T02:27:54.999Z,9.10
2023-05-17T02:30:22.484Z,9.00
2023-05-17T02:32:49.249Z,9.00
2023-05-17T02:35:16.224Z,9.00
2023-05-17T02:37:43.184Z,8.90
2023-05-17T02:40:12.589Z,8.90
2023-05-17T02:42:39.344Z,8.90
2023-05-17T02:45:06.144Z,8.80
2023-05-17T02:47:33.098Z,8.70
2023-05-17T02:50:00.474Z,8.70
2023-05-17T02:52:27.687Z,8.70
2023-05-17T02:54:54.520Z,8.70
2023-05-17T02:57:21.259Z,8.70
2023-05-17T02:59:48.043Z,8.70
2023-05-17T03:02:15.143Z,8.70
2023-05-17T03:04:42.014Z,8.70
2023-05-17T03:07:09.155Z,8.70
2023-05-17T03:09:37.402Z,8.70
2023-05-17T03:12:04.529Z,8.70
2023-05-17T03:14:34.024Z,8.60
2023-05-17T03:17:01.260Z,8.60
2023-05-17T03:19:28.400Z,8.60
2023-05-17T03:21:55.362Z,8.60
2023-05-17T03:24:22.249Z,8.60
2023-05-17T03:26:50.422Z,8.50
2023-05-17T03:29:17.510Z,8.50
2023-05-17T03:31:45.171Z,8.50
2023-05-17T03:34:13.006Z,8.50
2023-05-17T03:36:40.772Z,8.50
2023-05-17T03:39:08.910Z,8.50
2023-05-17T03:41:38.092Z,8.50
2023-05-17T03:44:04.966Z,8.50
2023-05-17T03:46:33.246Z,8.40
2023-05-17T03:49:00.144Z,8.40
2023-05-17T03:51:27.059Z,8.40
2023-05-17T03:53:53.866Z,8.40
2023-05-17T03:56:21.165Z,8.40
2023-05-17T03:58:47.907Z,8.30
2023-05-17T04:01:15.366Z,8.30
2023-05-17T04:03:42.168Z,8.30
2023-05-17T04:06:08.930Z,8.30
2023-05-17T04:08:37.669Z,8.30
2023-05-17T04:11:10.421Z,8.30
2023-05-17T04:13:37.709Z,8.30
2023-05-17T04:16:04.864Z,8.20
2023-05-17T04:18:31.875Z,8.30
2023-05-17T04:20:58.676Z,8.30
2023-05-17T04:23:25.579Z,8.30
2023-05-17T04:25:53.169Z,8.30
2023-05-17T04:28:22.081Z,8.30
2023-05-17T04:30:48.902Z,8.30
2023-05-17T04:33:15.843Z,8.30
2023-05-17T04:35:42.689Z,8.30
2023-05-17T04:38:09.516Z,8.30
2023-05-17T04:40:36.724Z,8.30
2023-05-17T04:43:03.984Z,8.30
2023-05-17T04:45:31.185Z,8.40
2023-05-17T04:47:59.600Z,8.50
2023-05-17T04:50:27.045Z,8.60
2023-05-17T04:52:53.914Z,8.80
2023-05-17T04:55:20.690Z,8.90
2023-05-17T04:57:48.041Z,9.00
2023-05-17T05:00:16.132Z,9.10
2023-05-17T05:02:48.163Z,9.20
2023-05-17T05:05:15.135Z,9.30
2023-05-17T05:07:43.918Z,9.40
2023-05-17T05:10:12.919Z,9.50
2023-05-17T05:12:39.952Z,9.60
2023-05-17T05:15:07.037Z,9.70
2023-05-17T05:17:35.845Z,9.70
2023-05-17T05:20:02.833Z,9.80
2023-05-17T05:22:29.716Z,9.90
2023-05-17T05:24:56.823Z,10.00
2023-05-17T05:27:23.654Z,10.00
2023-05-17T05:29:51.078Z,10.10
2023-05-17T05:32:18.108Z,10.20
2023-05-17T05:34:46.350Z,10.30
2023-05-17T05:37:13.747Z,10.40
2023-05-17T05:39:40.630Z,10.50
2023-05-17T05:42:08.208Z,10.60
2023-05-17T05:44:35.077Z,10.70
2023-05-17T05:47:01.999Z,10.70
2023-05-17T05:49:29.824Z,10.70
2023-05-17T05:51:56.616Z,10.70
2023-05-17T05:54:25.513Z,10.70
2023-05-17T05:56:52.653Z,10.70
2023-05-17T05:59:20.783Z,10.70
2023-05-17T06:01:47.900Z,10.70
2023-05-17T06:04:14.848Z,10.70
2023-05-17T06:06:41.867Z,10.70
2023-05-17T06:09:12.262Z,10.70
2023-05-17T06:11:39.852Z,10.70
2023-05-17T06:14:06.602Z,10.80
2023-05-17T06:16:36.619Z,10.80
2023-05-17T06:19:03.405Z,10.80
2023-05-17T06:21:30.200Z,10.80
2023-05-17T06:23:57.062Z,10.80
2023-05-17T06:26:23.789Z,10.90
2023-05-17T06:28:50.531Z,10.90
2023-05-17T06:31:19.075Z,10.90
2023-05-17T06:33:47.182Z,10.90
2023-05-17T06:36:14.053Z,10.90
2023-05-17T06:38:40.784Z,10.80
2023-05-17T06:41:07.566Z,10.90
2023-05-17T06:43:35.724Z,10.90
2023-05-17T06:46:04.422Z,10.90
2023-05-17T06:48:31.319Z,11.00
2023-05-17T06:50:58.145Z,11.10
2023-05-17T06:53:24.946Z,11.10
2023-05-17T06:55:51.702Z,11.10
2023-05-17T06:58:18.416Z,11.10
2023-05-17T07:00:45.193Z,11.20
2023-05-17T07:03:12.065Z,11.20
2023-05-17T07:05:38.924Z,11.20
2023-05-17T07:08:06.065Z,11.20
2023-05-17T07:10:32.869Z,11.20
2023-05-17T07:12:59.579Z,11.30
2023-05-17T07:15:26.620Z,11.30
2023-05-17T07:17:53.488Z,11.30
2023-05-17T07:20:20.393Z,11.40
2023-05-17T07:22:50.838Z,11.40
2023-05-17T07:25:18.931Z,11.40
2023-05-17T07:27:46.006Z,11.40
2023-05-17T07:30:12.794Z,11.50
2023-05-17T07:32:39.577Z,11.60
2023-05-17T07:35:06.615Z,11.60
2023-05-17T07:37:33.414Z,11.70
2023-05-17T07:40:00.395Z,11.70
2023-05-17T07:42:27.144Z,11.80
2023-05-17T07:44:56.221Z,11.90
2023-05-17T07:47:23.079Z,11.90
2023-05-17T07:49:49.949Z,12.00
2023-05-17T07:52:17.241Z,12.00
2023-05-17T07:54:44.021Z,12.10
2023-05-17T07:57:11.241Z,12.10
2023-05-17T07:59:38.036Z,12.20
2023-05-17T08:02:04.764Z,12.30
2023-05-17T08:04:31.703Z,12.30
2023-05-17T08:07:00.969Z,12.30
2023-05-17T08:09:27.861Z,12.30
2023-05-17T08:11:54.616Z,12.40
2023-05-17T08:14:21.444Z,12.40
2023-05-17T08:16:48.241Z,12.50
2023-05-17T08:19:15.455Z,12.60
2023-05-17T08:21:42.472Z,12.60
2023-05-17T08:24:09.222Z,12.60
2023-05-17T08:26:36.010Z,12.70
2023-05-17T08:29:03.005Z,12.90
2023-05-17T08:31:29.871Z,13.00
2023-05-17T08:33:56.879Z,13.10
2023-05-17T08:36:23.748Z,13.20
2023-05-17T08:38:51.531Z,13.20
2023-05-17T08:41:18.511Z,13.20
2023-05-17T08:43:45.326Z,13.20
2023-05-17T08:46:12.124Z,13.30
2023-05-17T08:48:42.038Z,13.30
2023-05-17T08:51:11.680Z,13.40
2023-05-17T08:53:38.505Z,13.40
2023-05-17T08:56:07.061Z,13.50
2023-05-17T08:58:41.122Z,13.50
2023-05-17T09:01:18.869Z,13.60
2023-05-17T09:03:45.652Z,13.70
2023-05-17T09:06:13.892Z,13.80
2023-05-17T09:08:40.642Z,13.90
2023-05-17T09:11:07.443Z,13.90
2023-05-17T09:13:34.408Z,13.90
2023-05-17T09:16:01.313Z,13.90
2023-05-17T09:18:28.322Z,13.90
2023-05-17T09:20:55.168Z,14.00
2023-05-17T09:23:22.434Z,14.10
2023-05-17T09:25:49.233Z,14.10
2023-05-17T09:28:16.848Z,14.20
2023-05-17T09:30:43.689Z,14.20
2023-05-17T09:33:11.142Z,14.30
2023-05-17T09:35:38.656Z,14.30
2023-05-17T09:38:05.470Z,14.30
2023-05-17T09:40:32.246Z,14.40
2023-05-17T09:42:58.983Z,14.40
2023-05-17T09:45:26.835Z,14.50
2023-05-17T09:47:54.280Z,14.60
2023-05-17T09:50:22.416Z,14.70
2023-05-17T09:52:50.821Z,14.80
2023-05-17T09:55:17.574Z,14.80
2023-05-17T09:57:44.370Z,14.90
2023-05-17T10:00:11.999Z,15.00
2023-05-17T10:02:41.313Z,15.10
2023-05-17T10:05:08.236Z,15.30
2023-05-17T10:07:34.970Z,15.40
2023-05-17T10:10:01.741Z,15.60
2023-05-17T10:12:30.064Z,15.80
2023-05-17T10:14:57.178Z,16.00
2023-05-17T10:17:24.516Z,16.10
2023-05-17T10:19:51.494Z,16.20
2023-05-17T10:22:23.269Z,16.30
2023-05-17T10:24:51.642Z,16.20
2023-05-17T10:27:18.584Z,16.10
2023-05-17T10:29:47.723Z,16.10
2023-05-17T10:32:17.388Z,16.20
2023-05-17T10:34:45.783Z,16.20
2023-05-17T10:37:14.226Z,16.30
2023-05-17T10:39:43.695Z,16.40
2023-05-17T10:42:14.731Z,16.60
2023-05-17T10:44:42.182Z,16.60
2023-05-17T10:47:09.045Z,16.70
2023-05-17T10:49:36.249Z,16.80
2023-05-17T10:52:03.001Z,17.00
2023-05-17T10:54:29.754Z,17.10
2023-05-17T10:56:56.485Z,17.30
2023-05-17T10:59:23.309Z,17.40
2023-05-17T11:01:50.021Z,17.40
2023-05-17T11:04:17.492Z,17.40
2023-05-17T11:06:44.306Z,17.30
2023-05-17T11:09:11.543Z,17.30
2023-05-17T11:11:38.338Z,17.40
2023-05-17T11:14:05.502Z,17.50
2023-05-17T11:16:32.245Z,17.70
2023-05-17T11:18:59.184Z,17.80
2023-05-17T11:21:26.342Z,17.80
2023-05-17T11:23:53.390Z,17.80
2023-05-17T11:26:20.123Z,17.90
2023-05-17T11:28:46.908Z,17.70
2023-05-17T11:31:13.676Z,17.70
2023-05-17T11:33:40.552Z,17.80
2023-05-17T11:36:07.667Z,17.80
2023-05-17T11:38:34.687Z,17.70
2023-05-17T11:41:02.051Z,17.90
2023-05-17T11:43:31.181Z,17.90
2023-05-17T11:45:58.142Z,17.90
2023-05-17T11:48:25.039Z,18.00
2023-05-17T11:50:51.838Z,18.00
2023-05-17T11:53:18.586Z,18.00
2023-05-17T11:55:45.460Z,17.90
2023-05-17T11:58:12.305Z,17.70
2023-05-17T12:00:40.708Z,17.60
2023-05-17T12:03:07.599Z,17.50
2023-05-17T12:05:34.561Z,17.40
2023-05-17T12:08:01.316Z,17.40
2023-05-17T12:10:28.241Z,17.40
2023-05-17T12:12:55.171Z,17.30
2023-05-17T12:15:22.214Z,17.40
2023-05-17T12:17:51.539Z,17.30
2023-05-17T12:20:18.682Z,17.30
2023-05-17T12:22:45.646Z,17.40
2023-05-17T12:25:12.372Z,17.40
2023-05-17T12:27:39.152Z,17.40
2023-05-17T12:30:05.926Z,17.50
2023-05-17T12:32:32.772Z,17.50
2023-05-17T12:34:59.560Z,17.50
2023-05-17T12:37:26.367Z,17.50
2023-05-17T12:39:53.157Z,17.60
2023-05-17T12:42:19.957Z,17.70
2023-05-17T12:44:46.698Z,17.80
2023-05-17T12:47:13.529Z,17.90
2023-05-17T12:49:40.447Z,18.00
2023-05-17T12:52:07.722Z,17.90
2023-05-17T12:54:34.609Z,18.00
2023-05-17T12:57:01.411Z,18.10
2023-05-17T12:59:29.398Z,18.20
2023-05-17T13:01:56.692Z,18.20
2023-05-17T13:04:23.540Z,18.30
2023-05-17T13:06:50.814Z,18.50
2023-05-17T13:09:18.593Z,18.50
2023-05-17T13:11:45.686Z,18.40
2023-05-17T13:14:12.785Z,18.50
2023-05-17T13:16:39.734Z,18.50
2023-05-17T13:19:06.616Z,18.60
2023-05-17T13:21:33.494Z,18.70
2023-05-17T13:24:01.343Z,18.70
2023-05-17T13:26:28.139Z,18.80
2023-05-17T13:28:54.912Z,18.80
2023-05-17T13:31:21.687Z,18.90
2023-05-17T13:33:50.162Z,18.90
2023-05-17T13:36:17.159Z,18.90
2023-05-17T13:38:43.915Z,19.00
2023-05-17T13:41:10.717Z,19.00
2023-05-17T13:43:37.484Z,19.00
2023-05-17T13:46:04.271Z,19.00
2023-05-17T13:48:31.325Z,19.10
2023-05-17T13:50:58.496Z,19.30
2023-05-17T13:53:25.218Z,19.30
2023-05-17T13:55:51.973Z,19.40
2023-05-17T13:58:18.723Z,19.50
2023-05-17T14:00:45.619Z,19.70
2023-05-17T14:03:13.356Z,19.90
2023-05-17T14:05:40.445Z,20.00
2023-05-17T14:08:07.780Z,20.00
2023-05-17T14:10:34.610Z,20.10
2023-05-17T14:13:01.692Z,19.90
2023-05-17T14:15:28.629Z,19.60
2023-05-17T14:17:55.508Z,19.50
2023-05-17T14:20:22.409Z,19.40
2023-05-17T14:22:49.203Z,19.40
2023-05-17T14:25:16.174Z,19.50
2023-05-17T14:27:43.004Z,19.40
2023-05-17T14:30:11.515Z,19.30
2023-05-17T14:32:39.782Z,19.20
2023-05-17T14:35:06.965Z,19.20
2023-05-17T14:37:34.135Z,19.10
2023-05-17T14:42:31.901Z,18.90
2023-05-17T14:44:58.913Z,18.90
2023-05-17T14:47:25.911Z,18.70
2023-05-17T14:49:52.660Z,18.60
2023-05-17T14:52:19.440Z,18.50
2023-05-17T14:54:46.256Z,18.40
2023-05-17T14:57:13.708Z,18.40
2023-05-17T14:59:41.101Z,18.40
2023-05-17T15:02:09.453Z,18.40
2023-05-17T15:04:36.282Z,18.30
2023-05-17T15:07:03.177Z,18.30
2023-05-17T15:09:31.128Z,18.20
2023-05-17T15:11:57.947Z,18.30
2023-05-17T15:14:25.155Z,18.40
2023-05-17T15:16:52.325Z,18.60
2023-05-17T15:19:19.313Z,18.60
2023-05-17T15:21:46.585Z,18.60
2023-05-17T15:24:14.341Z,18.60
2023-05-17T15:26:42.167Z,18.60
2023-05-17T15:29:08.954Z,18.70
2023-05-17T15:31:35.791Z,18.70
2023-05-17T15:34:03.182Z,18.70
2023-05-17T15:36:30.052Z,18.60
2023-05-17T15:38:56.838Z,18.60
2023-05-17T15:41:29.883Z,18.60
2023-05-17T15:43:57.268Z,18.80
2023-05-17T15:46:24.085Z,19.00
2023-05-17T15:48:51.052Z,19.30
2023-05-17T15:51:18.040Z,19.50
2023-05-17T15:53:44.848Z,19.80
2023-05-17T15:56:11.669Z,19.90
2023-05-17T15:58:38.541Z,19.70
2023-05-17T16:01:05.669Z,19.50
2023-05-17T16:03:32.515Z,19.30
2023-05-17T16:05:59.410Z,19.10
2023-05-17T16:08:26.294Z,18.90
2023-05-17T16:10:53.142Z,18.70
2023-05-17T16:13:19.905Z,18.60
2023-05-17T16:15:46.635Z,18.30
2023-05-17T16:18:15.367Z,18.20
2023-05-17T16:20:42.203Z,18.10
2023-05-17T16:23:09.078Z,18.00
2023-05-17T16:25:36.246Z,17.80
2023-05-17T16:28:03.039Z,17.80
2023-05-17T16:30:29.769Z,17.80
2023-05-17T16:32:56.619Z,17.80
2023-05-17T16:35:23.354Z,17.70
2023-05-17T16:37:50.173Z,17.80
2023-05-17T16:40:17.063Z,17.90
2023-05-17T16:42:44.680Z,18.00
2023-05-17T16:45:11.482Z,18.10
2023-05-17T16:47:38.388Z,18.10
2023-05-17T16:50:05.662Z,18.00
2023-05-17T16:52:32.514Z,18.00
2023-05-17T16:55:03.353Z,18.10
2023-05-17T16:57:30.847Z,18.20
2023-05-17T16:59:57.669Z,18.10
2023-05-17T17:02:24.894Z,18.00
2023-05-17T17:04:51.898Z,18.00
2023-05-17T17:07:18.653Z,18.00
2023-05-17T17:09:45.626Z,18.00
2023-05-17T17:12:23.636Z,18.00
2023-05-17T17:14:51.649Z,17.90
2023-05-17T17:17:18.412Z,17.90
2023-05-17T17:19:45.360Z,17.90
2023-05-17T17:22:14.212Z,17.90
2023-05-17T17:24:41.047Z,17.90
2023-05-17T17:27:07.877Z,17.90
2023-05-17T17:29:34.690Z,17.90
2023-05-17T17:32:01.478Z,18.00
2023-05-17T17:34:28.290Z,18.00
2023-05-17T17:36:55.009Z,17.90
2023-05-17T17:39:21.756Z,17.90
2023-05-17T17:41:48.543Z,17.70
2023-05-17T17:44:15.358Z,17.60
2023-05-17T17:46:42.532Z,17.40
2023-05-17T17:49:09.407Z,17.30
2023-05-17T17:51:36.192Z,17.20
2023-05-17T17:54:05.524Z,17.10
2023-05-17T17:56:32.878Z,17.10
2023-05-17T17:58:59.904Z,17.00
2023-05-17T18:01:26.694Z,17.00
2023-05-17T18:03:53.538Z,17.00
2023-05-17T18:06:20.430Z,17.10
2023-05-17T18:08:47.445Z,17.20
2023-05-17T18:11:14.241Z,17.20
2023-05-17T18:13:41.163Z,17.20
2023-05-17T18:16:07.923Z,17.20
2023-05-17T18:18:36.710Z,17.20
2023-05-17T18:21:03.506Z,17.20
2023-05-17T18:23:30.519Z,17.20
2023-05-17T18:25:57.251Z,17.10
2023-05-17T18:28:33.821Z,17.10
2023-05-17T18:31:07.975Z,17.00
2023-05-17T18:33:34.922Z,17.00
2023-05-17T18:36:01.795Z,16.90
2023-05-17T18:38:28.508Z,16.80
2023-05-17T18:40:55.272Z,16.80
2023-05-17T18:43:22.002Z,16.60
2023-05-17T18:45:48.820Z,16.50
2023-05-17T18:48:15.747Z,16.40
2023-05-17T18:50:42.671Z,16.30
2023-05-17T18:53:09.962Z,16.20
2023-05-17T18:55:36.760Z,16.20
2023-05-17T18:58:03.494Z,16.10
2023-05-17T19:00:30.500Z,16.10
2023-05-17T19:02:57.894Z,16.00
2023-05-17T19:05:24.715Z,16.00
2023-05-17T19:07:51.440Z,15.80
2023-05-17T19:10:18.560Z,15.70
2023-05-17T19:12:46.411Z,15.60
2023-05-17T19:15:13.225Z,15.50
2023-05-17T19:17:40.159Z,15.50
2023-05-17T19:20:07.001Z,15.50
2023-05-17T19:22:35.781Z,15.40
2023-05-17T19:25:02.745Z,15.20
2023-05-17T19:27:29.588Z,15.20
2023-05-17T19:29:56.447Z,15.20
2023-05-17T19:32:23.278Z,15.20
2023-05-17T19:34:50.070Z,15.10
2023-05-17T19:37:17.113Z,15.10
2023-05-17T19:39:44.044Z,15.00
2023-05-17T19:42:10.997Z,14.90
2023-05-17T19:44:37.814Z,14.90
2023-05-17T19:47:04.809Z,14.90
2023-05-17T19:49:31.843Z,14.90
2023-05-17T19:52:00.813Z,14.80
2023-05-17T19:54:27.604Z,14.80
2023-05-17T19:56:54.379Z,14.80
2023-05-17T19:59:21.137Z,14.80
2023-05-17T20:01:47.931Z,14.80
2023-05-17T20:04:14.780Z,14.70
2023-05-17T20:06:41.619Z,14.70
2023-05-17T20:09:08.446Z,14.70
2023-05-17T20:11:35.212Z,14.70
2023-05-17T20:14:02.033Z,14.60
2023-05-17T20:16:30.847Z,14.50
2023-05-17T20:19:01.364Z,14.50
2023-05-17T20:21:28.181Z,14.50
2023-05-17T20:24:01.518Z,14.50
2023-05-17T20:26:31.862Z,14.50
2023-05-17T20:28:59.284Z,14.50
2023-05-17T20:31:26.300Z,14.50
2023-05-17T20:33:53.368Z,14.40
2023-05-17T20:36:20.198Z,14.40
2023-05-17T20:38:47.036Z,14.40
2023-05-17T20:41:15.882Z,14.40
2023-05-17T20:43:45.270Z,14.30
2023-05-17T20:46:13.140Z,14.30
2023-05-17T20:48:42.634Z,14.30
2023-05-17T20:51:09.367Z,14.20
2023-05-17T20:53:36.272Z,14.20
2023-05-17T20:56:02.996Z,14.20
2023-05-17T20:58:29.828Z,14.10
2023-05-17T21:00:57.219Z,14.10
2023-05-17T21:03:28.206Z,14.00
2023-05-17T21:05:55.340Z,14.00
2023-05-17T21:08:22.217Z,13.90
2023-05-17T21:10:49.035Z,13.90
2023-05-17T21:13:15.973Z,13.90
2023-05-17T21:15:42.739Z,13.90
2023-05-17T21:18:09.617Z,13.90
2023-05-17T21:20:36.769Z,13.90
2023-05-17T21:23:03.484Z,13.80
2023-05-17T21:25:30.748Z,13.80
2023-05-17T21:27:57.713Z,13.80
2023-05-17T21:30:24.488Z,13.80
2023-05-17T21:32:51.506Z,13.70
2023-05-17T21:35:18.380Z,13.70
2023-05-17T21:37:45.190Z,13.70
2023-05-17T21:40:12.218Z,13.70
2023-05-17T21:42:39.073Z,13.60
2023-05-17T21:45:06.025Z,13.60
2023-05-17T21:47:32.867Z,13.60
2023-05-17T21:49:59.652Z,13.60
2023-05-17T21:52:26.415Z,13.70
2023-05-17T21:54:53.177Z,13.70
2023-05-17T21:57:21.177Z,13.70
2023-05-17T21:59:48.267Z,13.60
2023-05-17T22:02:15.043Z,13.70
2023-05-17T22:04:42.236Z,13.70
2023-05-17T22:07:09.024Z,13.70
2023-05-17T22:09:36.217Z,13.60
2023-05-17T22:12:05.005Z,13.60
2023-05-17T22:14:36.441Z,13.60
2023-05-17T22:17:08.554Z,13.60
2023-05-17T22:19:40.267Z,13.60
2023-05-17T22:22:07.268Z,13.50
2023-05-17T22:24:34.013Z,13.50
2023-05-17T22:27:00.740Z,13.50
2023-05-17T22:29:27.926Z,13.50
2023-05-17T22:31:54.740Z,13.50
2023-05-17T22:34:21.953Z,13.50
2023-05-17T22:36:48.910Z,13.40
2023-05-17T22:39:15.779Z,13.40
2023-05-17T22:41:42.675Z,13.40
2023-05-17T22:44:09.641Z,13.30
2023-05-17T22:46:36.614Z,13.30
2023-05-17T22:49:03.314Z,13.20
2023-05-17T22:51:30.187Z,13.20
2023-05-17T22:53:57.934Z,13.20
2023-05-17T22:56:24.808Z,13.20
2023-05-17T22:58:51.617Z,13.10
2023-05-17T23:01:18.375Z,13.10
2023-05-17T23:03:45.177Z,13.10
2023-05-17T23:06:12.932Z,13.10
2023-05-17T23:08:39.928Z,13.00
2023-05-17T23:11:06.887Z,13.00
2023-05-17T23:13:33.898Z,13.00
2023-05-17T23:16:00.876Z,12.90
2023-05-17T23:18:27.775Z,12.90
2023-05-17T23:20:56.706Z,12.90
2023-05-17T23:23:24.123Z,12.90
2023-05-17T23:25:50.909Z,12.90
2023-05-17T23:28:18.716Z,12.80
2023-05-17T23:30:48.655Z,12.80
2023-05-17T23:33:16.281Z,12.70
2023-05-17T23:35:42.991Z,12.70
2023-05-17T23:38:09.763Z,12.70
2023-05-17T23:40:37.167Z,12.70
2023-05-17T23:43:04.050Z,12.70
2023-05-17T23:45:31.076Z,12.60
2023-05-17T23:48:01.013Z,12.60
2023-05-17T23:50:27.905Z,12.60
2023-05-17T23:52:54.640Z,12.60
2023-05-17T23:55:22.559Z,12.50
2023-05-17T23:57:49.513Z,12.50
